createdAt,value
2018-08-13T00:01:58.446Z,3.70
2018-08-13T00:04:26.855Z,3.17
2018-08-13T00:06:55.261Z,3.40
2018-08-13T00:09:29.117Z,3.40
2018-08-13T00:11:57.777Z,3.23
2018-08-13T00:14:26.120Z,3.50
2018-08-13T00:16:54.465Z,3.23
2018-08-13T00:19:22.842Z,3.53
2018-08-13T00:21:52.265Z,3.00
2018-08-13T00:24:21.381Z,3.73
2018-08-13T00:26:50.637Z,3.43
2018-08-13T00:29:20.429Z,3.47
2018-08-13T00:31:49.899Z,4.27
2018-08-13T00:34:19.027Z,3.23
2018-08-13T00:36:47.362Z,3.97
2018-08-13T00:39:15.743Z,3.53
2018-08-13T00:41:44.173Z,3.53
2018-08-13T00:44:12.534Z,3.57
2018-08-13T00:46:40.880Z,3.57
2018-08-13T00:49:10.038Z,4.13
2018-08-13T00:51:38.992Z,4.33
2018-08-13T00:54:08.039Z,3.77
2018-08-13T00:56:38.077Z,4.53
2018-08-13T00:59:07.784Z,4.67
2018-08-13T01:01:36.692Z,4.03
2018-08-13T01:04:05.033Z,4.37
2018-08-13T01:06:35.430Z,4.03
2018-08-13T01:09:06.484Z,3.83
2018-08-13T01:11:34.816Z,3.90
2018-08-13T01:14:03.456Z,4.97
2018-08-13T01:16:31.917Z,4.27
2018-08-13T01:19:00.309Z,3.93
2018-08-13T01:21:28.745Z,3.93
2018-08-13T01:23:57.077Z,4.60
2018-08-13T01:26:25.413Z,3.90
2018-08-13T01:28:53.969Z,4.00
2018-08-13T01:31:22.301Z,4.00
2018-08-13T01:33:51.345Z,4.63
2018-08-13T01:36:20.806Z,4.57
2018-08-13T01:38:49.129Z,3.77
2018-08-13T01:41:17.477Z,4.30
2018-08-13T01:43:45.813Z,3.87
2018-08-13T01:46:14.134Z,4.70
2018-08-13T01:48:42.460Z,4.90
2018-08-13T01:51:10.776Z,5.10
2018-08-13T01:53:39.289Z,4.33
2018-08-13T01:56:09.072Z,3.83
2018-08-13T01:58:37.789Z,4.20
2018-08-13T02:01:07.775Z,4.47
2018-08-13T02:03:36.744Z,4.20
2018-08-13T02:06:05.152Z,3.87
2018-08-13T02:08:33.568Z,4.60
2018-08-13T02:11:01.924Z,4.93
2018-08-13T02:13:30.253Z,4.27
2018-08-13T02:15:59.452Z,4.47
2018-08-13T02:18:27.814Z,5.20
2018-08-13T02:20:56.124Z,4.43
2018-08-13T02:23:24.501Z,4.73
2018-08-13T02:25:53.802Z,4.90
2018-08-13T02:28:23.455Z,5.50
2018-08-13T02:30:52.884Z,4.47
2018-08-13T02:33:22.198Z,4.80
2018-08-13T02:35:50.561Z,4.73
2018-08-13T02:38:18.961Z,5.40
2018-08-13T02:40:48.224Z,5.20
2018-08-13T02:43:16.581Z,4.90
2018-08-13T02:45:45.863Z,4.93
2018-08-13T02:48:14.249Z,4.60
2018-08-13T02:50:42.693Z,5.87
2018-08-13T02:53:11.896Z,5.33
2018-08-13T02:55:41.252Z,6.03
2018-08-13T02:58:09.600Z,4.97
2018-08-13T03:00:39.196Z,5.30
2018-08-13T03:03:09.083Z,4.97
2018-08-13T03:05:39.580Z,4.90
2018-08-13T03:08:09.917Z,4.77
2018-08-13T03:10:40.053Z,5.23
2018-08-13T03:13:10.820Z,4.53
2018-08-13T03:15:40.083Z,4.50
2018-08-13T03:18:09.568Z,5.00
2018-08-13T03:20:39.610Z,4.73
2018-08-13T03:23:08.630Z,5.73
2018-08-13T03:25:38.869Z,5.17
2018-08-13T03:28:08.949Z,4.67
2018-08-13T03:30:37.943Z,5.47
2018-08-13T03:33:07.460Z,5.10
2018-08-13T03:35:37.801Z,4.93
2018-08-13T03:38:07.940Z,5.00
2018-08-13T03:40:38.002Z,5.47
2018-08-13T03:43:06.824Z,5.47
2018-08-13T03:45:35.156Z,4.20
2018-08-13T03:48:03.653Z,4.73
2018-08-13T03:50:32.862Z,4.50
2018-08-13T03:53:02.120Z,4.90
2018-08-13T03:55:31.595Z,4.80
2018-08-13T03:58:00.972Z,5.50
2018-08-13T04:00:30.509Z,5.23
2018-08-13T04:02:59.781Z,5.13
2018-08-13T04:05:29.020Z,4.30
2018-08-13T04:07:57.825Z,5.17
2018-08-13T04:10:26.158Z,4.97
2018-08-13T04:12:55.551Z,5.20
2018-08-13T04:15:24.688Z,5.30
2018-08-13T04:17:53.124Z,5.17
2018-08-13T04:20:23.868Z,5.10
2018-08-13T04:22:53.072Z,5.87
2018-08-13T04:25:23.809Z,9.10
2018-08-13T04:27:53.179Z,7.83
2018-08-13T04:30:23.821Z,7.53
2018-08-13T04:32:53.206Z,6.30
2018-08-13T04:35:22.554Z,5.97
2018-08-13T04:37:51.636Z,5.37
2018-08-13T04:40:20.748Z,5.50
2018-08-13T04:42:49.128Z,4.80
2018-08-13T04:45:17.477Z,4.90
2018-08-13T04:47:52.034Z,5.47
2018-08-13T04:50:20.641Z,5.57
2018-08-13T04:52:49.120Z,5.53
2018-08-13T04:55:17.977Z,4.90
2018-08-13T04:57:47.497Z,5.23
2018-08-13T05:00:15.838Z,4.97
2018-08-13T05:02:44.156Z,5.50
2018-08-13T05:05:12.854Z,4.90
2018-08-13T05:07:41.308Z,5.30
2018-08-13T05:10:10.820Z,4.70
2018-08-13T05:12:40.920Z,4.20
2018-08-13T05:15:10.865Z,4.20
2018-08-13T05:17:39.200Z,4.10
2018-08-13T05:20:09.937Z,4.57
2018-08-13T05:22:39.125Z,4.80
2018-08-13T05:25:10.809Z,5.67
2018-08-13T05:27:41.142Z,3.80
2018-08-13T05:30:11.757Z,3.60
2018-08-13T05:32:40.112Z,4.27
2018-08-13T05:35:10.799Z,4.40
2018-08-13T05:37:40.139Z,4.20
2018-08-13T05:40:10.550Z,3.80
2018-08-13T05:42:40.226Z,4.00
2018-08-13T05:45:10.694Z,4.30
2018-08-13T05:47:40.247Z,3.93
2018-08-13T05:50:11.006Z,4.63
2018-08-13T05:52:40.857Z,3.83
2018-08-13T05:55:10.149Z,4.40
2018-08-13T05:57:39.685Z,3.23
2018-08-13T06:00:11.057Z,4.10
2018-08-13T06:02:42.467Z,3.37
2018-08-13T06:05:12.886Z,3.03
2018-08-13T06:07:42.513Z,3.60
2018-08-13T06:10:12.658Z,3.60
2018-08-13T06:12:42.303Z,3.40
2018-08-13T06:15:13.580Z,3.30
2018-08-13T06:17:42.945Z,3.33
2018-08-13T06:20:12.377Z,3.37
2018-08-13T06:22:42.236Z,2.90
2018-08-13T06:25:12.407Z,3.40
2018-08-13T06:27:40.848Z,3.37
2018-08-13T06:30:12.275Z,2.90
2018-08-13T06:32:41.343Z,3.03
2018-08-13T06:35:10.206Z,2.97
2018-08-13T06:37:39.596Z,2.73
2018-08-13T06:40:10.077Z,3.37
2018-08-13T06:42:39.648Z,2.83
2018-08-13T06:45:09.408Z,3.17
2018-08-13T06:47:38.788Z,3.00
2018-08-13T06:50:09.645Z,3.70
2018-08-13T06:52:38.008Z,3.07
2018-08-13T06:55:07.007Z,3.50
2018-08-13T06:57:35.941Z,2.70
2018-08-13T07:00:06.945Z,3.10
2018-08-13T07:02:35.253Z,3.10
2018-08-13T07:05:03.926Z,3.10
2018-08-13T07:07:32.285Z,2.77
2018-08-13T07:10:00.650Z,2.83
2018-08-13T07:12:28.999Z,3.27
2018-08-13T07:14:57.415Z,2.90
2018-08-13T07:17:25.886Z,2.33
2018-08-13T07:19:54.344Z,3.00
2018-08-13T07:22:22.756Z,2.57
2018-08-13T07:24:51.931Z,2.37
2018-08-13T07:27:21.540Z,2.53
2018-08-13T07:29:50.498Z,3.00
2018-08-13T07:32:18.885Z,2.90
2018-08-13T07:34:48.201Z,2.87
2018-08-13T07:37:17.501Z,2.63
2018-08-13T07:39:45.939Z,2.53
2018-08-13T07:42:14.270Z,2.87
2018-08-13T07:44:43.610Z,2.33
2018-08-13T07:47:11.936Z,3.50
2018-08-13T07:49:40.309Z,3.53
2018-08-13T07:52:10.201Z,2.40
2018-08-13T07:54:39.541Z,2.87
2018-08-13T07:57:09.144Z,2.50
2018-08-13T07:59:37.556Z,2.60
2018-08-13T08:02:07.257Z,2.53
2018-08-13T08:04:35.793Z,2.93
2018-08-13T08:07:05.073Z,2.40
2018-08-13T08:09:33.436Z,2.87
2018-08-13T08:12:01.760Z,2.60
2018-08-13T08:14:30.129Z,2.40
2018-08-13T08:16:58.573Z,2.33
2018-08-13T08:19:27.049Z,3.00
2018-08-13T08:21:55.499Z,2.70
2018-08-13T08:24:23.849Z,2.37
2018-08-13T08:26:52.929Z,3.33
2018-08-13T08:29:23.799Z,2.90
2018-08-13T08:31:53.237Z,2.90
2018-08-13T08:34:24.071Z,2.27
2018-08-13T08:36:53.780Z,2.50
2018-08-13T08:39:23.433Z,2.30
2018-08-13T08:41:53.417Z,2.17
2018-08-13T08:44:22.308Z,2.63
2018-08-13T08:46:50.682Z,2.57
2018-08-13T08:49:19.024Z,2.20
2018-08-13T08:51:48.257Z,2.20
2018-08-13T08:54:16.590Z,2.60
2018-08-13T08:56:45.870Z,2.60
2018-08-13T08:59:15.011Z,2.30
2018-08-13T09:01:44.437Z,1.97
2018-08-13T09:04:13.653Z,2.30
2018-08-13T09:06:43.002Z,2.33
2018-08-13T09:09:13.158Z,2.07
2018-08-13T09:11:42.096Z,2.30
2018-08-13T09:14:10.488Z,1.87
2018-08-13T09:16:42.059Z,2.77
2018-08-13T09:19:21.898Z,2.03
2018-08-13T09:21:52.610Z,2.03
2018-08-13T09:24:32.403Z,1.80
2018-08-13T09:27:12.146Z,1.93
2018-08-13T09:29:51.816Z,1.93
2018-08-13T09:32:33.845Z,1.93
2018-08-13T09:35:38.695Z,2.00
2018-08-13T09:38:08.176Z,1.90
2018-08-13T09:40:36.561Z,1.60
2018-08-13T09:43:04.898Z,1.90
2018-08-13T09:45:33.389Z,1.73
2018-08-13T09:48:01.903Z,1.77
2018-08-13T09:50:30.237Z,1.80
2018-08-13T09:52:58.580Z,1.97
2018-08-13T09:55:27.971Z,2.07
2018-08-13T09:57:57.212Z,1.80
2018-08-13T10:00:30.836Z,2.87
2018-08-13T10:02:59.164Z,2.13
2018-08-13T10:05:27.504Z,1.77
2018-08-13T10:07:55.836Z,1.97
2018-08-13T10:10:24.177Z,1.97
2018-08-13T10:12:53.660Z,1.70
2018-08-13T10:15:22.801Z,1.80
2018-08-13T10:17:52.675Z,1.80
2018-08-13T10:20:21.826Z,1.90
2018-08-13T10:22:51.472Z,1.87
2018-08-13T10:25:21.009Z,1.93
2018-08-13T10:27:50.402Z,1.67
2018-08-13T10:30:18.753Z,1.70
2018-08-13T10:32:47.094Z,2.27
2018-08-13T10:35:15.452Z,1.87
2018-08-13T10:37:43.813Z,1.73
2018-08-13T10:40:15.232Z,1.40
2018-08-13T10:42:43.633Z,1.70
2018-08-13T10:45:11.989Z,2.00
2018-08-13T10:47:40.411Z,1.70
2018-08-13T10:50:11.417Z,1.53
2018-08-13T10:52:39.945Z,1.90
2018-08-13T10:55:08.948Z,1.80
2018-08-13T10:57:38.043Z,1.73
2018-08-13T11:00:09.643Z,1.70
2018-08-13T11:02:40.166Z,1.73
2018-08-13T11:05:10.858Z,2.10
2018-08-13T11:07:40.536Z,2.07
2018-08-13T11:10:11.343Z,2.30
2018-08-13T11:12:39.789Z,1.90
2018-08-13T11:15:24.231Z,2.13
2018-08-13T11:17:54.110Z,1.93
2018-08-13T11:20:24.052Z,2.70
2018-08-13T11:22:54.118Z,2.10
2018-08-13T11:25:24.550Z,2.00
2018-08-13T11:27:52.898Z,2.00
2018-08-13T11:30:22.378Z,2.10
2018-08-13T11:32:50.768Z,2.40
2018-08-13T11:35:19.096Z,2.07
2018-08-13T11:37:48.396Z,2.13
2018-08-13T11:40:18.590Z,1.73
2018-08-13T11:42:46.966Z,2.17
2018-08-13T11:45:15.317Z,1.90
2018-08-13T11:47:43.651Z,2.50
2018-08-13T11:50:15.120Z,2.90
2018-08-13T11:52:44.649Z,2.47
2018-08-13T11:55:13.025Z,2.37
2018-08-13T11:57:44.381Z,2.07
2018-08-13T12:00:13.346Z,2.00
2018-08-13T12:02:41.722Z,2.20
2018-08-13T12:05:12.818Z,2.87
2018-08-13T12:07:41.328Z,2.00
2018-08-13T12:10:11.414Z,2.70
2018-08-13T12:12:40.697Z,2.40
2018-08-13T12:15:10.945Z,2.10
2018-08-13T12:17:41.095Z,2.10
2018-08-13T12:20:12.353Z,2.30
2018-08-13T12:22:41.980Z,2.03
2018-08-13T12:25:10.770Z,2.30
2018-08-13T12:27:40.325Z,2.13
2018-08-13T12:30:10.557Z,2.33
2018-08-13T12:32:39.931Z,2.60
2018-08-13T12:35:09.048Z,1.80
2018-08-13T12:37:38.644Z,1.80
2018-08-13T12:40:10.262Z,1.63
2018-08-13T12:42:40.222Z,1.73
2018-08-13T12:45:15.855Z,1.73
2018-08-13T12:47:45.336Z,1.70
2018-08-13T12:50:14.841Z,2.00
2018-08-13T12:52:45.277Z,1.87
2018-08-13T12:55:14.829Z,2.40
2018-08-13T12:57:44.218Z,1.80
2018-08-13T13:00:15.638Z,1.57
2018-08-13T13:02:45.060Z,2.03
2018-08-13T13:05:15.581Z,2.17
2018-08-13T13:07:44.868Z,1.90
2018-08-13T13:10:14.700Z,2.10
2018-08-13T13:12:44.256Z,1.80
2018-08-13T13:15:14.888Z,1.93
2018-08-13T13:17:43.400Z,2.00
2018-08-13T13:20:17.129Z,1.90
2018-08-13T13:22:46.810Z,1.60
2018-08-13T13:25:16.532Z,2.30
2018-08-13T13:27:45.914Z,1.80
2018-08-13T13:30:16.232Z,2.67
2018-08-13T13:32:44.992Z,1.40
2018-08-13T13:35:15.233Z,1.83
2018-08-13T13:37:44.481Z,1.53
2018-08-13T13:40:14.926Z,1.60
2018-08-13T13:42:44.429Z,1.40
2018-08-13T13:45:14.753Z,1.57
2018-08-13T13:47:43.104Z,1.30
2018-08-13T13:50:13.781Z,1.63
2018-08-13T13:52:42.469Z,1.43
2018-08-13T13:55:10.983Z,1.30
2018-08-13T13:57:40.487Z,1.67
2018-08-13T14:00:15.644Z,1.30
2018-08-13T14:02:44.285Z,1.50
2018-08-13T14:05:12.698Z,1.50
2018-08-13T14:07:41.060Z,1.90
2018-08-13T14:10:15.136Z,1.80
2018-08-13T14:12:44.186Z,1.90
2018-08-13T14:15:14.020Z,1.80
2018-08-13T14:17:43.013Z,1.77
2018-08-13T14:20:11.736Z,1.47
2018-08-13T14:22:40.457Z,1.40
2018-08-13T14:25:11.993Z,1.40
2018-08-13T14:27:41.593Z,1.37
2018-08-13T14:30:17.303Z,1.20
2018-08-13T14:32:45.961Z,1.60
2018-08-13T14:35:14.400Z,1.60
2018-08-13T14:37:42.758Z,1.50
2018-08-13T14:40:12.386Z,1.47
2018-08-13T14:42:41.009Z,1.90
2018-08-13T14:45:11.393Z,1.83
2018-08-13T14:47:40.601Z,1.30
2018-08-13T14:50:11.063Z,1.60
2018-08-13T14:52:41.404Z,1.80
2018-08-13T14:55:11.697Z,1.47
2018-08-13T14:57:40.185Z,1.57
2018-08-13T15:00:14.156Z,1.57
2018-08-13T15:02:43.719Z,1.87
2018-08-13T15:05:12.245Z,1.90
2018-08-13T15:07:40.598Z,1.57
2018-08-13T15:10:13.085Z,1.70
2018-08-13T15:12:43.390Z,1.63
2018-08-13T15:15:13.334Z,2.03
2018-08-13T15:17:42.748Z,1.50
2018-08-13T15:20:14.121Z,2.13
2018-08-13T15:22:43.497Z,1.73
2018-08-13T15:25:13.013Z,2.17
2018-08-13T15:27:41.515Z,2.13
2018-08-13T15:30:14.716Z,2.30
2018-08-13T15:32:45.000Z,3.07
2018-08-13T15:35:13.424Z,2.00
2018-08-13T15:37:42.314Z,2.80
2018-08-13T15:40:11.634Z,2.70
2018-08-13T15:42:40.198Z,2.40
2018-08-13T15:45:12.262Z,2.50
2018-08-13T15:47:40.853Z,2.40
2018-08-13T15:50:11.080Z,2.17
2018-08-13T15:52:40.738Z,2.17
2018-08-13T15:55:10.356Z,2.00
2018-08-13T15:57:40.104Z,2.23
2018-08-13T16:00:09.943Z,2.70
2018-08-13T16:02:38.442Z,1.53
2018-08-13T16:05:09.069Z,1.97
2018-08-13T16:07:38.245Z,1.70
2018-08-13T16:10:09.596Z,1.93
2018-08-13T16:12:38.377Z,1.80
2018-08-13T16:15:08.188Z,1.70
2018-08-13T16:17:38.373Z,2.10
2018-08-13T16:20:10.513Z,2.00
2018-08-13T16:22:40.881Z,1.67
2018-08-13T16:25:10.372Z,2.13
2018-08-13T16:27:39.708Z,1.90
2018-08-13T16:30:16.110Z,2.33
2018-08-13T16:32:44.815Z,2.10
2018-08-13T16:35:14.221Z,2.03
2018-08-13T16:37:43.885Z,1.60
2018-08-13T16:40:12.269Z,2.10
2018-08-13T16:42:41.049Z,1.70
2018-08-13T16:45:11.625Z,2.37
2018-08-13T16:47:40.831Z,2.00
2018-08-13T16:50:15.026Z,2.10
2018-08-13T16:52:43.564Z,2.13
2018-08-13T16:55:12.670Z,2.40
2018-08-13T16:57:41.817Z,2.70
2018-08-13T17:00:12.526Z,2.17
2018-08-13T17:02:41.277Z,2.30
2018-08-13T17:05:11.501Z,2.73
2018-08-13T17:07:42.171Z,2.30
2018-08-13T17:10:14.768Z,2.70
2018-08-13T17:12:43.229Z,3.13
2018-08-13T17:15:12.270Z,2.37
2018-08-13T17:17:40.649Z,2.47
2018-08-13T17:20:12.522Z,3.10
2018-08-13T17:22:41.741Z,3.10
2018-08-13T17:25:12.257Z,3.73
2018-08-13T17:27:41.461Z,3.60
2018-08-13T17:30:14.041Z,2.63
2018-08-13T17:32:42.630Z,2.40
2018-08-13T17:35:12.083Z,3.37
2018-08-13T17:37:41.382Z,2.40
2018-08-13T17:40:12.446Z,2.40
2018-08-13T17:42:40.828Z,2.50
2018-08-13T17:45:10.572Z,2.77
2018-08-13T17:47:39.993Z,2.40
2018-08-13T17:50:11.285Z,2.53
2018-08-13T17:52:40.846Z,2.27
2018-08-13T17:55:10.617Z,2.77
2018-08-13T17:57:40.296Z,2.50
2018-08-13T18:00:12.497Z,2.70
2018-08-13T18:02:41.097Z,2.90
2018-08-13T18:05:12.116Z,2.30
2018-08-13T18:07:40.540Z,2.57
2018-08-13T18:10:14.030Z,2.77
2018-08-13T18:12:43.421Z,2.63
2018-08-13T18:15:14.203Z,3.20
2018-08-13T18:17:42.813Z,2.13
2018-08-13T18:20:11.669Z,2.50
2018-08-13T18:22:40.834Z,2.63
2018-08-13T18:25:11.801Z,2.50
2018-08-13T18:27:42.647Z,3.40
2018-08-13T18:30:20.725Z,3.53
2018-08-13T18:32:49.133Z,2.87
2018-08-13T18:35:17.681Z,3.27
2018-08-13T18:37:46.152Z,2.93
2018-08-13T18:40:17.365Z,2.60
2018-08-13T18:42:45.713Z,2.67
2018-08-13T18:45:14.108Z,2.77
2018-08-13T18:47:42.442Z,2.97
2018-08-13T18:50:12.944Z,2.53
2018-08-13T18:52:41.573Z,2.43
2018-08-13T18:55:13.318Z,2.40
2018-08-13T18:57:41.680Z,2.57
2018-08-13T19:00:14.789Z,2.77
2018-08-13T19:02:43.228Z,3.50
2018-08-13T19:05:13.317Z,2.83
2018-08-13T19:07:41.957Z,2.63
2018-08-13T19:10:12.176Z,2.40
2018-08-13T19:12:40.709Z,4.93
2018-08-13T19:15:11.713Z,2.43
2018-08-13T19:17:40.513Z,2.00
2018-08-13T19:20:11.480Z,3.20
2018-08-13T19:22:40.293Z,2.47
2018-08-13T19:25:11.508Z,2.50
2018-08-13T19:27:40.819Z,2.40
2018-08-13T19:30:11.423Z,2.40
2018-08-13T19:32:39.786Z,3.00
2018-08-13T19:35:10.050Z,2.13
2018-08-13T19:37:39.347Z,2.33
2018-08-13T19:40:10.064Z,2.10
2018-08-13T19:42:39.947Z,2.50
2018-08-13T19:45:09.698Z,2.23
2018-08-13T19:47:38.581Z,2.47
2018-08-13T19:50:09.559Z,2.47
2018-08-13T19:52:39.440Z,2.37
2018-08-13T19:55:09.401Z,2.53
2018-08-13T19:57:38.521Z,2.33
2018-08-13T20:00:14.258Z,2.33
2018-08-13T20:02:42.618Z,2.20
2018-08-13T20:05:12.172Z,2.50
2018-08-13T20:07:40.954Z,2.77
2018-08-13T20:10:12.636Z,2.50
2018-08-13T20:12:41.044Z,2.10
2018-08-13T20:15:10.748Z,3.27
2018-08-13T20:17:40.228Z,2.50
2018-08-13T20:20:11.813Z,2.70
2018-08-13T20:22:40.197Z,2.87
2018-08-13T20:25:11.150Z,2.67
2018-08-13T20:27:40.841Z,2.60
2018-08-13T20:30:12.239Z,2.50
2018-08-13T20:32:40.601Z,2.67
2018-08-13T20:35:10.039Z,2.20
2018-08-13T20:37:39.425Z,2.50
2018-08-13T20:40:09.873Z,2.97
2018-08-13T20:42:39.318Z,3.50
2018-08-13T20:45:11.031Z,2.60
2018-08-13T20:47:40.153Z,3.10
2018-08-13T20:50:11.299Z,2.67
2018-08-13T20:52:41.202Z,3.10
2018-08-13T20:55:13.516Z,2.93
2018-08-13T20:57:42.394Z,2.90
2018-08-13T21:00:12.281Z,2.90
2018-08-13T21:02:42.009Z,3.37
2018-08-13T21:05:10.876Z,2.80
2018-08-13T21:07:39.230Z,2.93
2018-08-13T21:10:10.101Z,3.07
2018-08-13T21:12:39.356Z,2.90
2018-08-13T21:15:10.001Z,3.00
2018-08-13T21:17:39.031Z,3.80
2018-08-13T21:20:08.518Z,3.17
2018-08-13T21:22:38.309Z,3.40
2018-08-13T21:25:10.983Z,3.43
2018-08-13T21:27:40.275Z,3.07
2018-08-13T21:30:10.025Z,3.30
2018-08-13T21:32:39.272Z,2.80
2018-08-13T21:35:08.661Z,3.20
2018-08-13T21:37:37.057Z,3.33
2018-08-13T21:40:07.631Z,3.20
2018-08-13T21:42:35.981Z,2.90
2018-08-13T21:45:04.356Z,3.40
2018-08-13T21:47:32.742Z,3.37
2018-08-13T21:50:02.031Z,4.20
2018-08-13T21:52:30.461Z,3.27
2018-08-13T21:54:58.800Z,3.47
2018-08-13T21:57:27.142Z,3.60
2018-08-13T21:59:56.002Z,3.50
2018-08-13T22:02:24.366Z,3.70
2018-08-13T22:04:52.693Z,3.20
2018-08-13T22:07:21.525Z,3.80
2018-08-13T22:09:51.404Z,3.77
2018-08-13T22:12:21.764Z,3.70
2018-08-13T22:14:50.689Z,3.53
2018-08-13T22:17:19.065Z,3.57
2018-08-13T22:19:47.385Z,4.10
2018-08-13T22:22:16.771Z,3.47
2018-08-13T22:25:10.169Z,3.60
2018-08-13T22:27:40.601Z,4.17
2018-08-13T22:30:10.523Z,3.53
2018-08-13T22:32:40.353Z,3.97
2018-08-13T22:35:10.165Z,4.17
2018-08-13T22:37:40.180Z,3.37
2018-08-13T22:40:12.485Z,3.93
2018-08-13T22:42:41.651Z,3.17
2018-08-13T22:45:10.885Z,3.80
2018-08-13T22:47:41.382Z,3.67
2018-08-13T22:50:11.173Z,3.73
2018-08-13T22:52:40.165Z,4.20
2018-08-13T22:55:12.245Z,4.33
2018-08-13T22:57:40.585Z,3.97
2018-08-13T23:00:12.514Z,3.90
2018-08-13T23:02:41.097Z,4.30
2018-08-13T23:05:11.513Z,4.10
2018-08-13T23:07:41.378Z,5.07
2018-08-13T23:10:11.592Z,4.87
2018-08-13T23:12:40.628Z,4.60
2018-08-13T23:15:12.357Z,5.07
2018-08-13T23:17:41.072Z,4.20
2018-08-13T23:20:14.688Z,5.20
2018-08-13T23:23:03.856Z,4.63
2018-08-13T23:25:34.749Z,3.73
2018-08-13T23:28:04.527Z,4.37
2018-08-13T23:30:34.017Z,4.07
2018-08-13T23:33:02.582Z,4.80
2018-08-13T23:35:31.718Z,4.07
2018-08-13T23:38:00.074Z,4.40
2018-08-13T23:40:28.594Z,4.27
2018-08-13T23:42:56.972Z,3.50
2018-08-13T23:45:27.888Z,4.23
2018-08-13T23:47:57.330Z,4.33
2018-08-13T23:50:27.209Z,4.03
2018-08-13T23:52:57.865Z,3.67
2018-08-13T23:55:31.768Z,4.30
2018-08-13T23:58:01.360Z,4.03
